createdAt,value
2023-04-08T00:00:18.888Z,9.10
2023-04-08T00:05:53.729Z,10.10
2023-04-08T00:11:04.599Z,9.90
2023-04-08T00:16:12.634Z,10.60
2023-04-08T00:21:21.230Z,10.10
2023-04-08T00:26:27.418Z,9.60
2023-04-08T00:31:32.901Z,11.80
2023-04-08T00:36:38.523Z,12.00
2023-04-08T00:41:44.102Z,13.10
2023-04-08T00:46:49.998Z,13.10
2023-04-08T00:51:56.301Z,10.60
2023-04-08T00:57:01.945Z,11.50
2023-04-08T01:02:15.741Z,12.00
2023-04-08T01:07:26.230Z,13.10
2023-04-08T01:12:39.976Z,13.20
2023-04-08T01:17:47.176Z,13.00
2023-04-08T01:23:09.811Z,14.00
2023-04-08T01:28:19.399Z,15.00
2023-04-08T01:33:27.511Z,15.60
2023-04-08T01:38:39.487Z,16.80
2023-04-08T01:43:46.321Z,16.70
2023-04-08T01:48:52.899Z,15.70
2023-04-08T01:53:59.028Z,18.70
2023-04-08T01:59:10.680Z,27.20
2023-04-08T02:04:16.303Z,20.80
2023-04-08T02:09:25.169Z,25.90
2023-04-08T02:14:31.188Z,30.60
2023-04-08T02:19:46.936Z,32.40
2023-04-08T02:24:53.135Z,30.80
2023-04-08T02:30:00.804Z,47.80
2023-04-08T02:35:09.448Z,40.30
2023-04-08T02:40:29.236Z,37.20
2023-04-08T02:45:38.397Z,28.50
2023-04-08T02:50:43.968Z,28.50
2023-04-08T02:55:49.603Z,30.50
2023-04-08T03:00:55.628Z,38.90
2023-04-08T03:06:01.304Z,44.50
2023-04-08T03:11:07.042Z,29.00
2023-04-08T03:16:12.724Z,26.20
2023-04-08T03:21:18.328Z,25.90
2023-04-08T03:26:23.965Z,31.30
2023-04-08T03:31:32.702Z,22.30
2023-04-08T03:36:38.469Z,22.20
2023-04-08T03:41:44.141Z,19.80
2023-04-08T03:46:50.061Z,22.30
2023-04-08T03:51:55.790Z,20.70
2023-04-08T03:57:01.402Z,22.50
2023-04-08T04:02:07.177Z,20.30
2023-04-08T04:07:12.814Z,25.00
2023-04-08T04:12:20.470Z,30.70
2023-04-08T04:17:26.208Z,31.60
2023-04-08T04:22:31.833Z,32.90
2023-04-08T04:27:37.573Z,29.10
2023-04-08T04:32:44.225Z,22.00
2023-04-08T04:37:52.001Z,24.20
2023-04-08T04:42:57.742Z,26.40
2023-04-08T04:48:08.245Z,20.70
2023-04-08T04:53:16.074Z,18.60
2023-04-08T04:58:23.729Z,18.30
2023-04-08T05:03:30.727Z,16.80
2023-04-08T05:08:36.662Z,15.60
2023-04-08T05:13:42.233Z,13.90
2023-04-08T05:18:47.977Z,15.40
2023-04-08T05:23:54.477Z,16.50
2023-04-08T05:28:59.978Z,17.30
2023-04-08T05:34:05.463Z,14.70
2023-04-08T05:39:10.952Z,11.80
2023-04-08T05:44:16.394Z,11.80
2023-04-08T05:49:22.121Z,11.30
2023-04-08T05:54:27.670Z,11.00
2023-04-08T05:59:33.467Z,10.00
2023-04-08T06:04:39.864Z,9.60
2023-04-08T06:09:45.656Z,9.50
2023-04-08T06:14:56.188Z,7.10
2023-04-08T06:20:07.873Z,6.70
2023-04-08T06:25:13.741Z,6.00
2023-04-08T06:30:19.349Z,5.70
2023-04-08T06:35:29.620Z,4.80
2023-04-08T06:40:35.442Z,4.80
2023-04-08T06:45:43.245Z,4.00
2023-04-08T06:50:48.805Z,6.70
2023-04-08T06:55:55.148Z,5.70
2023-04-08T07:01:03.501Z,6.30
2023-04-08T07:06:09.314Z,3.90
2023-04-08T07:11:15.819Z,4.20
2023-04-08T07:16:21.612Z,3.40
2023-04-08T07:21:31.994Z,3.30
2023-04-08T07:26:38.192Z,3.40
2023-04-08T07:31:44.888Z,3.10
2023-04-08T07:36:50.685Z,3.10
2023-04-08T07:41:56.674Z,4.40
2023-04-08T07:47:02.480Z,3.40
2023-04-08T07:52:08.474Z,4.10
2023-04-08T07:57:16.536Z,3.90
2023-04-08T08:02:22.149Z,3.60
2023-04-08T08:07:27.702Z,3.30
2023-04-08T08:12:34.650Z,3.20
2023-04-08T08:17:40.430Z,5.10
2023-04-08T08:22:56.814Z,3.50
2023-04-08T08:28:05.700Z,3.00
2023-04-08T08:33:11.528Z,3.40
2023-04-08T08:38:17.798Z,3.40
2023-04-08T08:43:24.288Z,3.90
2023-04-08T08:48:30.079Z,3.80
2023-04-08T08:53:38.048Z,4.80
2023-04-08T08:58:43.835Z,4.40
2023-04-08T09:04:08.846Z,3.20
2023-04-08T09:09:17.197Z,3.50
2023-04-08T09:14:25.766Z,4.00
2023-04-08T09:19:31.723Z,3.20
2023-04-08T09:24:38.165Z,3.50
2023-04-08T09:29:43.690Z,3.60
2023-04-08T09:34:53.861Z,4.90
2023-04-08T09:39:59.803Z,4.30
2023-04-08T09:45:07.701Z,5.90
2023-04-08T09:50:15.581Z,4.00
2023-04-08T09:55:24.087Z,3.40
2023-04-08T10:00:35.446Z,4.20
2023-04-08T10:05:43.768Z,4.20
2023-04-08T10:10:50.017Z,3.60
2023-04-08T10:16:27.482Z,4.00
2023-04-08T10:21:50.269Z,4.20
2023-04-08T10:26:59.208Z,4.50
2023-04-08T10:32:06.481Z,6.10
2023-04-08T10:37:12.339Z,4.60
2023-04-08T10:42:17.727Z,4.10
2023-04-08T10:47:30.191Z,4.20
2023-04-08T10:52:35.966Z,5.50
2023-04-08T10:57:41.657Z,4.20
2023-04-08T11:02:47.661Z,3.60
2023-04-08T11:07:54.855Z,5.00
2023-04-08T11:13:00.464Z,3.40
2023-04-08T11:18:07.358Z,4.10
2023-04-08T11:23:15.611Z,3.90
2023-04-08T11:28:22.263Z,4.00
2023-04-08T11:33:30.840Z,4.00
2023-04-08T11:38:41.608Z,3.90
2023-04-08T11:43:59.525Z,4.40
2023-04-08T11:49:10.005Z,5.40
2023-04-08T11:54:29.391Z,5.40
2023-04-08T11:59:34.866Z,4.20
2023-04-08T12:04:40.301Z,5.30
2023-04-08T12:09:45.958Z,5.00
2023-04-08T12:14:51.491Z,4.00
2023-04-08T12:19:57.306Z,3.70
2023-04-08T12:25:04.160Z,5.20
2023-04-08T12:30:12.261Z,5.10
2023-04-08T12:35:18.076Z,4.30
2023-04-08T12:40:23.627Z,4.50
2023-04-08T12:45:29.342Z,5.10
2023-04-08T12:50:42.701Z,4.10
2023-04-08T12:55:49.196Z,3.50
2023-04-08T13:00:55.679Z,4.20
2023-04-08T13:06:01.766Z,3.60
2023-04-08T13:11:09.395Z,4.90
2023-04-08T13:16:15.571Z,4.40
2023-04-08T13:21:24.816Z,4.90
2023-04-08T13:26:32.692Z,4.10
2023-04-08T13:31:48.946Z,5.80
2023-04-08T13:42:20.439Z,5.30
2023-04-08T13:47:32.372Z,7.40
2023-04-08T13:52:42.807Z,8.00
2023-04-08T13:57:48.450Z,13.30
2023-04-08T14:02:54.057Z,7.90
2023-04-08T14:08:02.602Z,6.40
2023-04-08T14:13:08.129Z,4.80
2023-04-08T14:18:23.382Z,5.30
2023-04-08T14:23:29.000Z,5.00
2023-04-08T14:28:34.873Z,5.70
2023-04-08T14:33:43.514Z,6.20
2023-04-08T14:38:54.735Z,5.40
2023-04-08T14:44:10.369Z,6.00
2023-04-08T14:49:26.000Z,4.50
2023-04-08T14:54:35.973Z,5.90
2023-04-08T14:59:42.046Z,5.30
2023-04-08T15:04:47.592Z,6.80
2023-04-08T15:09:54.433Z,7.20
2023-04-08T15:15:07.612Z,5.50
2023-04-08T15:20:14.527Z,8.10
2023-04-08T15:25:21.239Z,10.10
2023-04-08T15:30:27.759Z,9.40
2023-04-08T15:35:42.389Z,8.40
2023-04-08T15:40:48.291Z,8.50
2023-04-08T15:45:54.019Z,7.80
2023-04-08T15:51:08.364Z,9.70
2023-04-08T15:56:16.353Z,11.40
2023-04-08T16:01:22.429Z,11.50
2023-04-08T16:06:28.066Z,8.30
2023-04-08T16:11:35.954Z,7.80
2023-04-08T16:16:41.413Z,7.80
2023-04-08T16:21:47.036Z,8.50
2023-04-08T16:26:52.560Z,12.80
2023-04-08T16:31:58.052Z,11.60
2023-04-08T16:37:03.805Z,11.10
2023-04-08T16:42:09.607Z,12.60
2023-04-08T16:47:15.512Z,12.40
2023-04-08T16:52:21.555Z,13.40
2023-04-08T16:57:27.351Z,10.60
2023-04-08T17:02:32.932Z,9.10
2023-04-08T17:07:38.570Z,11.90
2023-04-08T17:12:44.296Z,13.00
2023-04-08T17:17:49.798Z,12.70
2023-04-08T17:22:56.121Z,15.00
2023-04-08T17:28:01.787Z,11.70
2023-04-08T17:33:07.488Z,8.90
2023-04-08T17:38:13.046Z,13.00
2023-04-08T17:43:18.485Z,16.00
2023-04-08T17:48:24.098Z,24.80
2023-04-08T17:53:29.824Z,15.00
2023-04-08T17:58:35.375Z,12.30
2023-04-08T18:03:41.043Z,20.30
2023-04-08T18:08:46.733Z,19.00
2023-04-08T18:13:52.590Z,23.00
2023-04-08T18:18:58.522Z,26.20
2023-04-08T18:24:04.237Z,21.90
2023-04-08T18:29:09.944Z,20.90
2023-04-08T18:34:15.495Z,19.80
2023-04-08T18:39:22.546Z,19.20
2023-04-08T18:44:28.698Z,21.10
2023-04-08T18:49:34.356Z,17.90
2023-04-08T18:54:40.115Z,18.00
2023-04-08T18:59:48.681Z,24.00
2023-04-08T19:04:55.707Z,31.80
2023-04-08T19:10:01.394Z,34.40
2023-04-08T19:15:08.440Z,26.80
2023-04-08T19:20:14.286Z,21.40
2023-04-08T19:25:20.707Z,19.50
2023-04-08T19:30:26.487Z,21.30
2023-04-08T19:35:32.167Z,25.00
2023-04-08T19:40:37.970Z,31.90
2023-04-08T19:45:44.277Z,32.40
2023-04-08T19:50:51.053Z,32.60
2023-04-08T19:56:01.793Z,32.00
2023-04-08T20:01:09.978Z,25.70
2023-04-08T20:06:15.336Z,25.40
2023-04-08T20:11:21.039Z,28.80
2023-04-08T20:16:26.896Z,31.60
2023-04-08T20:21:32.649Z,33.40
2023-04-08T20:26:38.239Z,33.70
2023-04-08T20:31:44.789Z,28.80
2023-04-08T20:36:50.929Z,30.90
2023-04-08T20:41:58.227Z,23.50
2023-04-08T20:47:04.099Z,20.70
2023-04-08T20:52:09.795Z,21.40
2023-04-08T20:57:15.503Z,24.30
2023-04-08T21:02:21.690Z,19.60
2023-04-08T21:07:27.401Z,20.10
2023-04-08T21:12:32.894Z,22.60
2023-04-08T21:17:38.411Z,22.00
2023-04-08T21:22:43.829Z,19.80
2023-04-08T21:27:49.993Z,20.90
2023-04-08T21:32:55.374Z,22.00
2023-04-08T21:38:01.326Z,21.50
2023-04-08T21:43:13.120Z,19.20
2023-04-08T21:48:21.260Z,19.20
2023-04-08T21:53:26.953Z,21.30
2023-04-08T21:58:32.474Z,22.40
2023-04-08T22:03:37.915Z,20.30
2023-04-08T22:08:43.601Z,20.50
2023-04-08T22:13:55.425Z,22.50
2023-04-08T22:19:01.098Z,19.10
2023-04-08T22:24:07.363Z,17.80
2023-04-08T22:29:12.938Z,15.50
2023-04-08T22:34:18.514Z,14.80
2023-04-08T22:39:26.065Z,14.20
2023-04-08T22:44:31.534Z,15.00
2023-04-08T22:49:36.926Z,13.60
2023-04-08T22:54:42.310Z,13.90
2023-04-08T22:59:47.911Z,15.80
2023-04-08T23:04:56.094Z,15.20
2023-04-08T23:10:01.433Z,13.70
2023-04-08T23:15:08.358Z,16.20
2023-04-08T23:20:14.304Z,15.80
2023-04-08T23:25:20.317Z,13.90
2023-04-08T23:30:25.768Z,14.00
2023-04-08T23:35:31.563Z,14.00
2023-04-08T23:40:37.181Z,15.50
2023-04-08T23:45:42.715Z,14.80
2023-04-08T23:50:52.070Z,13.00
2023-04-08T23:56:05.618Z,13.40
